Time;durP1;ratioP1;P1;durP2;ratioP2;P2;SDS_P1;SDS_P2;PMS_P1;PMS_P2;Temp;Humidity;BMP_temperature;BMP_pressure;BME280_temperature;BME280_humidity;BME280_pressure;Samples;Min_cycle;Max_cycle;Signal;HPM_P1;HPM_P2
2022/09/14 00:01:46;;;;;;;2.28;2.05;;;16.10;99.90;;;;;;6132750;23;20465;-80
2022/09/14 00:04:19;;;;;;;2.97;1.92;;;16.00;99.90;;;;;;6133668;23;20020;-80
2022/09/14 00:06:48;;;;;;;2.67;2.25;;;15.90;99.90;;;;;;6157726;23;20340;-80
2022/09/14 00:09:21;;;;;;;7.10;2.15;;;16.00;99.90;;;;;;6129771;23;20032;-80
2022/09/14 00:11:50;;;;;;;5.30;2.15;;;15.80;99.90;;;;;;6142529;23;20341;-80
2022/09/14 00:14:21;;;;;;;2.95;2.72;;;16.00;99.90;;;;;;6134086;23;20032;-80
2022/09/14 00:16:49;;;;;;;;;;;15.90;99.90;;;;;;6109663;23;20025;-80
2022/09/14 00:19:23;;;;;;;3.83;1.98;;;15.80;99.90;;;;;;6133909;23;19920;-80
2022/09/14 00:21:55;;;;;;;2.28;1.98;;;15.50;99.90;;;;;;6133093;23;20025;-80
2022/09/14 00:24:26;;;;;;;1.95;1.83;;;15.80;99.90;;;;;;6108906;23;20032;-80
2022/09/14 00:27:01;;;;;;;1.60;1.50;;;15.80;99.90;;;;;;6158154;23;20028;-80
2022/09/14 00:29:29;;;;;;;2.03;1.92;;;15.80;99.90;;;;;;6108647;23;20065;-80
2022/09/14 00:32:00;;;;;;;;;;;15.80;99.90;;;;;;6133347;23;20024;-80
2022/09/14 00:34:33;;;;;;;5.70;2.40;;;15.80;99.90;;;;;;6158125;23;19931;-79
2022/09/14 00:37:01;;;;;;;4.40;1.90;;;15.90;99.90;;;;;;6108408;23;20032;-80
2022/09/14 00:39:29;;;;;;;2.08;1.98;;;15.80;99.90;;;;;;6193952;23;20329;-80
2022/09/14 00:41:57;;;;;;;2.17;2.08;;;16.20;99.90;;;;;;6158488;23;20028;-80
2022/09/14 00:44:27;;;;;;;1.95;1.80;;;15.70;99.90;;;;;;6157613;23;20025;-80
2022/09/14 00:46:57;;;;;;;2.03;1.92;;;16.00;99.90;;;;;;6168014;23;20020;-80
2022/09/14 00:49:34;;;;;;;1.50;1.40;;;16.40;99.90;;;;;;6157021;23;20021;-80
2022/09/14 00:52:11;;;;;;;4.82;2.10;;;15.70;99.90;;;;;;6132959;23;20027;-80
2022/09/14 00:54:48;;;;;;;2.70;2.45;;;15.90;99.90;;;;;;6169081;23;20040;-80
2022/09/14 00:57:17;;;;;;;2.40;2.20;;;15.90;99.90;;;;;;6157017;23;20032;-80
2022/09/14 00:59:47;;;;;;;2.65;2.45;;;15.70;99.90;;;;;;6133422;23;20436;-80
2022/09/14 01:02:17;;;;;;;4.70;3.25;;;15.80;99.90;;;;;;6156723;23;20036;-80
2022/09/14 01:04:56;;;;;;;2.97;2.70;;;15.80;99.90;;;;;;6165142;23;20021;-80
2022/09/14 01:08:23;;;;;;;6.80;4.28;;;15.60;99.90;;;;;;6143516;23;20009;-80
2022/09/14 01:11:18;;;;;;;2.42;2.22;;;15.70;99.90;;;;;;6130251;23;20026;-80
2022/09/14 01:13:55;;;;;;;3.53;3.20;;;15.60;99.90;;;;;;6182377;23;20237;-79
2022/09/14 01:16:33;;;;;;;2.45;2.25;;;15.60;99.90;;;;;;6189319;23;20021;-80
2022/09/14 01:19:13;;;;;;;4.10;2.55;;;15.60;99.90;;;;;;6157711;23;20021;-79
2022/09/14 01:21:42;;;;;;;2.80;2.60;;;15.70;99.90;;;;;;6158813;23;20352;-80
2022/09/14 01:24:16;;;;;;;2.03;1.92;;;15.60;99.90;;;;;;6131884;23;20036;-79
2022/09/14 01:27:00;;;;;;;2.55;2.35;;;15.70;99.90;;;;;;6109087;23;20021;-80
2022/09/14 01:29:37;;;;;;;1.83;1.73;;;15.70;99.90;;;;;;6135935;23;20800;-79
2022/09/14 01:32:15;;;;;;;2.45;2.25;;;15.60;99.90;;;;;;6108952;23;20017;-83
2022/09/14 01:34:49;;;;;;;2.83;2.63;;;15.70;99.90;;;;;;6144131;23;20009;-83
2022/09/14 01:37:53;;;;;;;3.60;3.30;;;15.80;99.90;;;;;;6161535;23;20345;-83
2022/09/14 01:40:34;;;;;;;5.35;3.17;;;15.50;99.90;;;;;;6140886;23;20025;-83
2022/09/14 01:43:25;;;;;;;;;;;15.70;99.90;;;;;;6168907;23;20020;-82
2022/09/14 01:45:56;;;;;;;3.88;3.53;;;15.50;99.90;;;;;;6141110;23;19932;-83
2022/09/14 01:48:36;;;;;;;5.70;3.03;;;15.80;99.90;;;;;;6164931;23;20025;-83
2022/09/14 01:51:11;;;;;;;4.63;2.75;;;15.70;99.90;;;;;;6160329;23;20014;-83
2022/09/14 01:54:08;;;;;;;7.13;2.75;;;16.00;99.90;;;;;;6185881;23;20020;-83
2022/09/14 02:00:17;;;;;;;2.85;2.60;;;15.60;99.90;;;;;;6165708;23;20017;-83
2022/09/14 02:02:52;;;;;;;3.67;2.40;;;15.50;99.90;;;;;;6133669;23;20445;-83
2022/09/14 02:05:34;;;;;;;3.30;3.00;;;15.70;99.90;;;;;;6132897;23;20017;-83
2022/09/14 02:09:12;;;;;;;4.75;2.60;;;15.40;99.90;;;;;;6141614;23;20009;-83
2022/09/14 02:11:40;;;;;;;3.90;3.03;;;15.40;99.90;;;;;;6158059;23;20032;-83
2022/09/14 02:14:08;;;;;;;2.75;2.55;;;15.60;99.90;;;;;;6184236;23;20032;-83
2022/09/14 02:16:35;;;;;;;2.60;2.40;;;15.40;99.90;;;;;;6132929;23;20036;-83
2022/09/14 02:19:03;;;;;;;2.70;2.50;;;15.50;99.90;;;;;;6190611;23;20013;-83
2022/09/14 02:21:32;;;;;;;2.33;2.22;;;15.50;99.90;;;;;;6186582;23;20021;-83
2022/09/14 02:24:01;;;;;;;3.05;2.58;;;15.60;99.90;;;;;;6192733;23;20016;-84
2022/09/14 02:26:29;;;;;;;3.35;3.05;;;15.40;99.90;;;;;;6158314;23;20024;-84
2022/09/14 02:28:57;;;;;;;2.50;2.30;;;15.50;99.90;;;;;;6189118;23;20021;-83
2022/09/14 02:31:29;;;;;;;3.45;3.15;;;16.00;99.90;;;;;;6194412;23;20009;-84
2022/09/14 02:34:08;;;;;;;3.30;3.10;;;15.50;99.90;;;;;;6184765;23;20021;-83
2022/09/14 02:36:46;;;;;;;2.60;2.45;;;15.40;99.90;;;;;;6190745;23;20017;-83
2022/09/14 02:39:48;;;;;;;2.25;2.15;;;15.30;99.90;;;;;;6194347;23;20009;-84
2022/09/14 02:42:16;;;;;;;2.53;2.42;;;15.30;99.90;;;;;;6132203;23;20025;-83
2022/09/14 02:44:53;;;;;;;2.45;2.25;;;15.40;99.90;;;;;;6190486;23;20021;-83
2022/09/14 02:47:48;;;;;;;3.00;2.70;;;15.40;99.90;;;;;;6170532;23;20024;-84
2022/09/14 02:50:57;;;;;;;3.28;2.55;;;15.20;99.90;;;;;;6184871;23;20021;-83
2022/09/14 02:53:46;;;;;;;3.08;2.88;;;15.20;99.90;;;;;;6042273;23;20031;-83
2022/09/14 02:56:16;;;;;;;3.08;2.88;;;15.30;99.90;;;;;;6154775;23;20733;-83
2022/09/14 02:58:44;;;;;;;4.10;3.47;;;15.30;99.90;;;;;;6169876;23;20009;-83
2022/09/14 03:01:15;;;;;;;7.65;2.95;;;15.20;99.90;;;;;;6189022;23;20337;-83
2022/09/14 03:03:45;;;;;;;3.28;2.40;;;15.20;99.90;;;;;;6169526;23;20017;-83
2022/09/14 03:06:13;;;;;;;2.83;2.70;;;15.40;99.90;;;;;;6185157;23;20021;-83
2022/09/14 03:08:44;;;;;;;4.82;3.28;;;15.30;99.90;;;;;;6134113;23;20025;-83
2022/09/14 03:11:11;;;;;;;4.10;3.78;;;15.40;99.90;;;;;;6196062;23;20017;-83
2022/09/14 03:13:40;;;;;;;8.30;3.42;;;15.20;99.90;;;;;;6187487;23;20032;-83
2022/09/14 03:16:10;;;;;;;5.45;2.72;;;15.20;99.90;;;;;;6167321;23;20021;-83
2022/09/14 03:18:38;;;;;;;3.17;2.85;;;15.10;99.90;;;;;;6169390;23;20341;-83
2022/09/14 03:21:09;;;;;;;3.38;3.10;;;15.20;99.90;;;;;;6189498;23;20028;-84
2022/09/14 03:23:45;;;;;;;4.10;3.80;;;15.20;99.90;;;;;;6159177;23;20017;-83
2022/09/14 03:26:19;;;;;;;3.75;3.45;;;15.40;99.90;;;;;;6158132;23;20457;-83
2022/09/14 03:28:55;;;;;;;5.18;2.85;;;15.60;99.90;;;;;;6164544;23;20025;-83
2022/09/14 03:31:24;;;;;;;3.03;2.70;;;15.40;99.90;;;;;;6195477;23;20440;-83
2022/09/14 03:33:54;;;;;;;3.00;2.83;;;16.00;99.90;;;;;;6186363;23;20024;-84
2022/09/14 03:36:22;;;;;;;2.92;2.72;;;15.30;99.90;;;;;;6192747;23;20441;-84
2022/09/14 03:38:52;;;;;;;4.60;3.25;;;15.40;99.90;;;;;;6169551;23;20009;-83
2022/09/14 03:41:21;;;;;;;2.95;2.72;;;15.40;99.90;;;;;;6162662;23;20460;-84
2022/09/14 03:43:49;;;;;;;2.70;2.60;;;15.40;99.90;;;;;;6194540;23;20017;-83
2022/09/14 03:46:21;;;;;;;2.38;2.22;;;15.20;99.90;;;;;;6195734;23;20032;-84
2022/09/14 03:48:50;;;;;;;6.80;3.25;;;15.10;99.90;;;;;;6164217;23;20028;-84
2022/09/14 03:51:17;;;;;;;4.05;3.47;;;14.70;99.90;;;;;;6161025;23;20337;-83
2022/09/14 03:53:45;;;;;;;3.00;2.80;;;15.30;99.90;;;;;;6158495;23;20028;-84
2022/09/14 03:56:16;;;;;;;4.15;2.70;;;15.10;99.90;;;;;;6158609;23;20032;-83
2022/09/14 03:58:45;;;;;;;5.90;3.95;;;15.20;99.90;;;;;;6195724;23;20017;-83
2022/09/14 04:01:15;;;;;;;3.95;3.65;;;15.40;99.90;;;;;;6157844;23;20021;-84
2022/09/14 04:03:43;;;;;;;5.90;3.63;;;14.90;99.90;;;;;;6169359;23;20017;-83
2022/09/14 04:06:12;;;;;;;4.07;3.78;;;15.50;99.90;;;;;;6159260;23;20017;-83
2022/09/14 04:09:11;;;;;;;3.35;3.15;;;15.50;99.90;;;;;;6190577;23;20029;-83
2022/09/14 04:11:39;;;;;;;5.30;4.88;;;15.10;99.90;;;;;;6195495;23;20329;-83
2022/09/14 04:14:07;;;;;;;4.00;3.70;;;15.30;99.90;;;;;;6158797;23;20028;-84
2022/09/14 04:16:34;;;;;;;3.70;3.47;;;15.60;99.90;;;;;;6191026;23;20020;-83
2022/09/14 04:19:02;;;;;;;4.05;3.75;;;15.20;99.90;;;;;;6195398;23;20337;-83
2022/09/14 04:21:30;;;;;;;3.40;3.10;;;15.00;99.90;;;;;;6158021;23;20040;-84
2022/09/14 04:23:59;;;;;;;3.92;3.63;;;15.20;99.90;;;;;;6193459;23;20013;-83
2022/09/14 04:26:42;;;;;;;3.63;3.33;;;15.00;99.90;;;;;;6195652;23;20016;-83
2022/09/14 04:29:11;;;;;;;3.30;3.10;;;15.20;99.90;;;;;;6188958;23;20032;-83
2022/09/14 04:31:39;;;;;;;3.13;2.80;;;15.40;99.90;;;;;;6195081;23;20016;-83
2022/09/14 04:34:09;;;;;;;4.43;3.15;;;15.30;99.90;;;;;;6184706;23;20028;-84
2022/09/14 04:36:36;;;;;;;5.22;3.67;;;15.20;99.90;;;;;;6164843;23;20021;-85
2022/09/14 04:39:05;;;;;;;4.55;3.90;;;15.20;99.90;;;;;;6194977;23;20036;-84
2022/09/14 04:41:35;;;;;;;4.50;3.35;;;15.20;99.90;;;;;;6187245;23;20021;-84
2022/09/14 04:44:02;;;;;;;4.57;4.18;;;15.20;99.90;;;;;;6193339;23;20020;-83
2022/09/14 04:46:34;;;;;;;4.05;3.65;;;15.20;99.90;;;;;;6158141;23;20021;-85
2022/09/14 04:49:11;;;;;;;3.05;2.85;;;15.20;99.90;;;;;;6163934;23;20027;-85
2022/09/14 04:51:39;;;;;;;4.50;4.10;;;15.20;99.90;;;;;;6135707;23;20014;-84
2022/09/14 04:54:06;;;;;;;3.63;3.33;;;15.30;99.90;;;;;;6122929;23;20026;-86
2022/09/14 04:56:35;;;;;;;6.70;4.55;;;15.30;99.90;;;;;;6123685;23;20022;-85
2022/09/14 04:59:04;;;;;;;4.10;3.70;;;15.70;99.90;;;;;;6135315;23;20022;-84
2022/09/14 05:01:39;;;;;;;4.05;3.75;;;15.30;99.90;;;;;;6127577;23;20029;-85
2022/09/14 05:04:07;;;;;;;4.35;3.35;;;15.10;99.90;;;;;;6131452;23;20033;-85
2022/09/14 05:06:38;;;;;;;3.90;3.70;;;15.50;99.90;;;;;;6135418;23;20063;-86
2022/09/14 05:09:15;;;;;;;3.78;3.40;;;15.50;99.90;;;;;;6128476;23;20045;-85
2022/09/14 05:11:43;;;;;;;2.65;2.45;;;15.60;99.90;;;;;;6134812;23;20033;-84
2022/09/14 05:14:12;;;;;;;3.70;3.40;;;15.50;99.90;;;;;;6124229;23;20465;-85
2022/09/14 05:16:41;;;;;;;4.22;3.42;;;15.60;99.90;;;;;;6131183;23;20025;-84
2022/09/14 05:19:13;;;;;;;4.28;3.60;;;15.60;99.90;;;;;;6135161;23;20358;-84
2022/09/14 05:21:41;;;;;;;3.10;2.85;;;15.50;99.90;;;;;;6124997;23;20605;-86
2022/09/14 05:24:16;;;;;;;5.85;3.53;;;15.60;99.90;;;;;;6155705;23;20026;-85
2022/09/14 05:26:45;;;;;;;3.38;3.08;;;15.90;99.90;;;;;;6133720;23;20021;-85
2022/09/14 05:29:14;;;;;;;4.80;2.90;;;15.90;99.90;;;;;;6128285;23;20029;-83
2022/09/14 05:31:43;;;;;;;4.15;2.78;;;15.70;99.90;;;;;;6123093;23;20045;-85
2022/09/14 05:34:10;;;;;;;7.97;3.45;;;15.80;99.90;;;;;;6123957;23;20026;-85
2022/09/14 05:36:39;;;;;;;45.10;5.88;;;16.00;99.90;;;;;;6128918;23;20029;-85
2022/09/14 05:40:09;;;;;;;6.55;3.72;;;15.80;99.90;;;;;;6134644;23;20018;-85
2022/09/14 05:42:37;;;;;;;4.13;3.38;;;15.80;99.90;;;;;;6131482;23;20753;-86
2022/09/14 05:45:04;;;;;;;3.22;2.92;;;15.80;99.90;;;;;;6126990;23;20041;-87
2022/09/14 05:47:34;;;;;;;4.50;3.38;;;15.80;99.90;;;;;;6135331;23;20025;-90
2022/09/14 05:50:14;;;;;;;3.33;3.13;;;16.00;99.90;;;;;;6148718;23;20043;-86
2022/09/14 05:52:42;;;;;;;5.53;2.67;;;15.80;99.90;;;;;;6189628;23;20028;-87
2022/09/14 05:55:09;;;;;;;5.80;4.03;;;15.80;99.90;;;;;;6168349;23;20017;-86
2022/09/14 05:57:36;;;;;;;3.05;2.85;;;15.90;99.90;;;;;;6186018;23;20025;-88
2022/09/14 06:00:05;;;;;;;3.97;3.22;;;15.90;99.90;;;;;;6157656;23;20638;-87
2022/09/14 06:02:38;;;;;;;7.85;3.17;;;15.90;99.90;;;;;;6194355;23;20028;-85
2022/09/14 06:05:06;;;;;;;3.55;2.50;;;16.10;99.90;;;;;;6187934;23;20036;-86
2022/09/14 06:07:38;;;;;;;3.30;2.83;;;15.90;99.90;;;;;;6168072;23;20013;-84
2022/09/14 06:10:08;;;;;;;2.83;2.63;;;15.90;99.90;;;;;;6157903;23;20357;-86
2022/09/14 06:12:36;;;;;;;4.20;3.67;;;15.90;99.90;;;;;;6189508;23;20457;-85
2022/09/14 06:15:04;;;;;;;3.92;3.45;;;15.90;99.90;;;;;;6133760;23;20020;-84
2022/09/14 06:17:31;;;;;;;3.17;2.97;;;15.90;99.90;;;;;;6133229;23;20027;-83
2022/09/14 06:19:58;;;;;;;2.58;2.45;;;16.10;99.90;;;;;;6192651;23;20625;-85
2022/09/14 06:22:31;;;;;;;2.40;2.20;;;16.00;99.90;;;;;;6158997;23;20017;-83
2022/09/14 06:24:58;;;;;;;2.83;2.53;;;16.00;99.90;;;;;;6190371;23;20388;-83
2022/09/14 06:27:26;;;;;;;8.55;5.10;;;16.10;99.90;;;;;;6169497;23;20021;-83
2022/09/14 06:29:53;;;;;;;3.00;2.80;;;16.10;99.90;;;;;;6186956;23;20033;-83
2022/09/14 06:32:22;;;;;;;3.22;2.47;;;16.10;99.90;;;;;;6193511;23;20040;-84
2022/09/14 06:34:49;;;;;;;4.40;3.03;;;16.50;99.90;;;;;;6195749;23;20436;-83
2022/09/14 06:37:20;;;;;;;2.92;2.72;;;16.20;99.90;;;;;;6189041;23;20021;-83
2022/09/14 06:39:48;;;;;;;3.05;2.78;;;16.20;99.90;;;;;;6134152;23;20017;-83
2022/09/14 06:42:15;;;;;;;2.63;2.42;;;16.40;99.90;;;;;;6144528;23;20017;-82
2022/09/14 06:44:52;;;;;;;3.97;3.60;;;16.30;99.90;;;;;;6134185;23;20025;-84
2022/09/14 06:47:19;;;;;;;3.40;2.67;;;16.40;99.90;;;;;;6134653;23;20024;-81
2022/09/14 06:49:48;;;;;;;2.80;2.55;;;16.40;99.90;;;;;;6134185;23;20774;-81
2022/09/14 06:52:16;;;;;;;3.05;2.13;;;16.50;99.90;;;;;;6192814;23;20017;-81
2022/09/14 06:54:43;;;;;;;2.53;2.22;;;16.70;99.90;;;;;;6195579;23;20020;-83
2022/09/14 06:57:11;;;;;;;1.70;1.60;;;17.10;99.90;;;;;;6158304;23;20064;-82
2022/09/14 06:59:39;;;;;;;3.25;1.60;;;17.90;99.90;;;;;;6168434;23;20013;-82
2022/09/14 07:02:08;;;;;;;4.05;1.92;;;17.90;99.90;;;;;;6159129;23;20029;-82
2022/09/14 07:04:36;;;;;;;5.18;1.83;;;18.00;99.90;;;;;;6165534;23;20025;-85
2022/09/14 07:07:04;;;;;;;3.38;2.15;;;18.10;99.90;;;;;;6195384;23;20021;-84
2022/09/14 07:09:31;;;;;;;2.63;1.38;;;18.50;99.90;;;;;;6130743;23;20457;-83
2022/09/14 07:11:58;;;;;;;10.23;3.35;;;18.30;99.90;;;;;;6157811;23;20027;-84
2022/09/14 07:14:26;;;;;;;1.92;1.83;;;18.40;99.90;;;;;;6134566;23;20028;-83
2022/09/14 07:16:58;;;;;;;2.03;1.77;;;18.30;99.90;;;;;;6111269;23;20018;-85
2022/09/14 07:19:26;;;;;;;2.05;1.52;;;18.30;99.90;;;;;;6169784;23;20013;-84
2022/09/14 07:21:54;;;;;;;7.43;1.65;;;17.90;99.90;;;;;;6185308;23;20021;-87
2022/09/14 07:24:27;;;;;;;1.88;1.67;;;18.60;99.90;;;;;;6191606;23;20021;-86
2022/09/14 07:26:55;;;;;;;1.40;1.30;;;18.50;99.90;;;;;;6158549;23;20013;-81
2022/09/14 07:29:22;;;;;;;2.08;1.98;;;18.50;99.90;;;;;;6109036;23;20025;-83
2022/09/14 07:31:52;;;;;;;3.33;1.90;;;18.00;99.90;;;;;;6109380;23;20017;-87
2022/09/14 07:34:20;;;;;;;6.10;2.53;;;18.40;99.90;;;;;;6169577;23;20024;-85
2022/09/14 07:36:50;;;;;;;3.72;1.70;;;18.30;99.90;;;;;;6164389;23;20028;-85
2022/09/14 07:39:24;;;;;;;3.83;1.67;;;18.50;99.90;;;;;;6158486;23;20025;-85
2022/09/14 07:41:54;;;;;;;1.73;1.63;;;18.50;99.90;;;;;;6185992;23;20021;-85
2022/09/14 07:44:22;;;;;;;1.73;1.60;;;18.70;99.90;;;;;;6166052;23;20033;-87
2022/09/14 07:47:11;;;;;;;2.80;1.65;;;19.20;99.90;;;;;;6134987;23;20021;-87
2022/09/14 07:50:13;;;;;;;5.72;2.45;;;19.00;99.90;;;;;;6110332;23;20445;-87
2022/09/14 07:53:32;;;;;;;5.45;1.52;;;19.00;99.90;;;;;;6162603;23;20029;-86
2022/09/14 07:56:22;;;;;;;3.55;1.83;;;19.20;99.90;;;;;;6119433;23;20025;-87
2022/09/14 07:58:57;;;;;;;8.13;2.13;;;19.20;99.90;;;;;;6168708;23;20013;-85
2022/09/14 08:01:50;;;;;;;6.80;1.80;;;19.20;99.90;;;;;;6173348;23;20025;-84
2022/09/14 08:04:18;;;;;;;2.60;1.67;;;19.50;99.90;;;;;;6171180;23;20449;-82
2022/09/14 08:06:45;;;;;;;5.50;1.65;;;19.30;99.90;;;;;;6176369;23;20316;-83
2022/09/14 08:09:13;;;;;;;4.28;1.23;;;19.50;99.90;;;;;;6186045;23;20037;-84
2022/09/14 08:11:40;;;;;;;4.00;1.52;;;19.50;99.90;;;;;;6158412;23;20017;-86
2022/09/14 08:14:11;;;;;;;5.93;1.73;;;19.60;99.90;;;;;;6157431;23;20024;-85
2022/09/14 08:16:39;;;;;;;1.25;0.90;;;19.90;99.90;;;;;;6164202;23;20044;-85
2022/09/14 08:19:12;;;;;;;2.03;1.42;;;19.90;99.90;;;;;;6158362;23;20552;-83
2022/09/14 08:21:40;;;;;;;2.38;2.13;;;20.00;99.90;;;;;;6186220;23;20028;-84
2022/09/14 08:24:15;;;;;;;2.95;1.50;;;20.40;99.90;;;;;;6191805;23;20029;-84
2022/09/14 08:26:44;;;;;;;2.00;1.10;;;20.40;99.90;;;;;;6134297;23;20032;-85
2022/09/14 08:29:22;;;;;;;3.05;1.77;;;20.50;99.90;;;;;;6188530;23;20263;-89
2022/09/14 08:31:50;;;;;;;2.08;1.85;;;20.70;99.90;;;;;;6167182;23;20448;-84
2022/09/14 08:34:21;;;;;;;1.50;1.30;;;21.10;99.90;;;;;;6194954;23;20028;-87
2022/09/14 08:37:09;;;;;;;1.30;1.20;;;21.00;99.90;;;;;;6187131;23;20350;-89
2022/09/14 08:39:54;;;;;;;2.53;1.05;;;21.30;99.90;;;;;;6143864;23;20028;-88
2022/09/14 08:42:24;;;;;;;5.65;1.70;;;21.80;99.90;;;;;;6170834;23;20039;-81
2022/09/14 08:44:59;;;;;;;3.75;1.25;;;21.90;99.90;;;;;;6188538;23;20025;-83
2022/09/14 08:47:37;;;;;;;3.60;1.60;;;21.80;99.90;;;;;;6134038;23;20013;-87
2022/09/14 08:50:23;;;;;;;1.45;1.35;;;21.70;99.90;;;;;;6152182;23;20025;-88
2022/09/14 08:53:09;;;;;;;1.45;1.27;;;21.80;99.90;;;;;;6151707;23;20654;-87
2022/09/14 08:55:44;;;;;;;2.80;1.33;;;22.00;99.90;;;;;;6164791;23;20013;-84
2022/09/14 08:58:38;;;;;;;2.38;1.45;;;22.00;99.90;;;;;;6152699;23;20025;-89
2022/09/14 09:01:22;;;;;;;1.17;1.10;;;22.00;99.90;;;;;;6157605;23;20029;-86
2022/09/14 09:04:27;;;;;;;2.28;0.90;;;21.90;99.90;;;;;;6151528;23;20484;-86
2022/09/14 09:06:57;;;;;;;3.80;1.88;;;22.10;99.90;;;;;;6163388;23;20018;-84
2022/09/14 09:09:38;;;;;;;2.22;1.75;;;22.10;99.90;;;;;;6155350;23;20342;-89
2022/09/14 09:12:11;;;;;;;1.23;1.13;;;22.30;99.90;;;;;;6161515;23;20029;-84
2022/09/14 09:15:17;;;;;;;13.70;2.97;;;22.40;99.90;;;;;;6152921;23;20022;-89
2022/09/14 09:18:40;;;;;;;1.13;1.10;;;22.60;99.90;;;;;;6091331;23;20473;-87
2022/09/14 09:21:14;;;;;;;3.38;2.42;;;22.80;99.90;;;;;;6098230;23;20022;-86
2022/09/14 09:23:47;;;;;;;2.75;1.73;;;22.90;99.90;;;;;;6133555;23;20014;-87
2022/09/14 09:26:29;;;;;;;3.78;1.17;;;23.00;99.90;;;;;;6126922;23;20024;-89
2022/09/14 09:29:00;;;;;;;2.95;1.95;;;23.00;99.90;;;;;;6157775;23;20354;-84
2022/09/14 09:31:33;;;;;;;3.60;1.73;;;23.10;99.90;;;;;;6164342;23;20013;-82
2022/09/14 09:34:36;;;;;;;6.47;1.33;;;23.30;99.90;;;;;;6143267;23;20032;-84
2022/09/14 09:37:30;;;;;;;2.63;1.38;;;23.20;99.90;;;;;;6124485;23;20346;-87
2022/09/14 09:40:12;;;;;;;3.72;2.40;;;23.30;99.90;;;;;;6160743;23;20017;-88
2022/09/14 09:43:23;;;;;;;8.02;2.45;;;23.20;99.90;;;;;;6139810;23;20014;-86
2022/09/14 09:46:25;;;;;;;21.90;2.75;;;23.60;99.90;;;;;;6152031;23;20028;31
2022/09/14 09:49:02;;;;;;;1.38;1.27;;;23.60;99.90;;;;;;6054570;23;20019;-87
2022/09/14 09:52:15;;;;;;;1.98;1.35;;;23.70;99.90;;;;;;6058568;23;20029;-86
2022/09/14 09:58:50;;;;;;;4.90;2.10;;;23.90;99.90;;;;;;6166447;23;20025;-90
2022/09/14 10:01:44;;;;;;;4.15;1.65;;;24.00;99.90;;;;;;6153522;23;20029;-83
2022/09/14 10:11:37;;;;;;;2.10;1.80;;;24.10;99.90;;;;;;6127157;23;20310;-87
2022/09/14 10:17:51;;;;;;;5.07;1.20;;;24.10;99.90;;;;;;6155638;23;20025;-84
2022/09/14 10:20:51;;;;;;;8.63;1.27;;;23.90;99.90;;;;;;6083265;23;20473;-87
2022/09/14 10:23:19;;;;;;;4.43;1.30;;;23.70;99.90;;;;;;6166036;23;20775;-81
2022/09/14 10:25:52;;;;;;;4.85;1.55;;;23.50;99.90;;;;;;6131248;23;20022;-87
2022/09/14 10:28:47;;;;;;;4.38;1.30;;;23.30;99.90;;;;;;6136142;23;20048;-85
2022/09/14 10:31:34;;;;;;;9.63;1.55;;;23.50;99.90;;;;;;6129700;23;20446;-85
2022/09/14 10:34:18;;;;;;;7.28;2.25;;;23.30;99.90;;;;;;6131702;23;20018;-88
2022/09/14 10:37:34;;;;;;;6.32;2.45;;;23.20;99.90;;;;;;6096863;23;20470;-87
2022/09/14 10:40:21;;;;;;;4.00;1.17;;;23.30;99.90;;;;;;6073616;23;20030;-84
2022/09/14 10:43:40;;;;;;;1.80;1.15;;;23.50;99.90;;;;;;6075690;23;20018;-85
2022/09/14 10:46:15;;;;;;;5.55;1.90;;;23.70;99.90;;;;;;6029063;23;20034;-84
2022/09/14 10:49:12;;;;;;;4.50;2.05;;;24.10;99.90;;;;;;6069552;23;20066;-82
2022/09/14 10:51:54;;;;;;;3.00;1.60;;;24.20;99.90;;;;;;6071546;23;20026;-85
2022/09/14 10:54:37;;;;;;;4.93;2.78;;;24.10;99.90;;;;;;6069714;23;20034;-83
2022/09/14 10:57:11;;;;;;;4.37;1.77;;;24.20;99.90;;;;;;6064847;23;20027;-84
2022/09/14 10:59:59;;;;;;;3.70;1.65;;;24.20;99.90;;;;;;6060809;23;20019;-83
2022/09/14 11:03:18;;;;;;;7.43;2.15;;;24.40;99.90;;;;;;6078434;23;20030;-88
2022/09/14 11:06:00;;;;;;;;;;;24.40;99.90;;;;;;6123410;23;20022;-85
2022/09/14 11:08:43;;;;;;;3.30;2.67;;;24.40;99.90;;;;;;6072467;23;19917;-86
2022/09/14 11:11:44;;;;;;;7.68;1.75;;;24.50;99.90;;;;;;6117127;23;20013;-77
2022/09/14 11:14:43;;;;;;;8.10;1.83;;;24.20;99.90;;;;;;6118509;23;20032;-79
2022/09/14 11:21:27;;;;;;;4.82;1.35;;;24.10;99.90;;;;;;5946638;23;20023;-84
2022/09/14 11:24:50;;;;;;;5.15;2.22;;;24.30;99.90;;;;;;6022308;23;20529;-82
2022/09/14 11:27:29;;;;;;;;;;;24.30;99.90;;;;;;6092359;23;20354;-82
2022/09/14 11:30:01;;;;;;;1.70;1.50;;;24.30;99.90;;;;;;6092395;23;19918;-79
2022/09/14 11:32:53;;;;;;;3.33;1.85;;;24.50;99.90;;;;;;6096089;23;20037;-77
2022/09/14 11:35:32;;;;;;;29.42;3.13;;;24.40;99.90;;;;;;6100615;23;20040;-78
2022/09/14 11:38:14;;;;;;;8.57;1.85;;;24.60;99.90;;;;;;6090401;23;20030;-79
2022/09/14 11:40:46;;;;;;;5.85;1.63;;;24.60;99.90;;;;;;6096936;23;20031;-79
2022/09/14 11:43:13;;;;;;;3.53;1.40;;;24.70;99.90;;;;;;6099436;23;20029;-78
2022/09/14 11:49:33;;;;;;;4.93;2.00;;;24.40;99.90;;;;;;6065705;23;20026;-86
2022/09/14 11:52:21;;;;;;;1.33;1.15;;;24.50;99.90;;;;;;6014941;23;20506;-83
2022/09/14 11:54:50;;;;;;;6.18;1.80;;;24.20;99.90;;;;;;6095091;23;20015;-85
2022/09/14 11:57:23;;;;;;;4.68;2.80;;;24.20;99.90;;;;;;6037333;23;20040;-82
2022/09/14 11:59:56;;;;;;;8.68;2.38;;;24.30;99.90;;;;;;6093189;23;20022;-84
2022/09/14 12:03:00;;;;;;;3.53;1.80;;;24.30;99.90;;;;;;6062409;23;20015;-82
2022/09/14 12:06:28;;;;;;;3.45;1.83;;;24.30;99.90;;;;;;6039578;23;20350;-81
2022/09/14 12:09:20;;;;;;;4.53;1.80;;;24.50;99.90;;;;;;6034229;23;20030;-79
2022/09/14 12:11:57;;;;;;;6.78;1.70;;;24.70;99.90;;;;;;6072363;23;20026;-87
2022/09/14 12:14:30;;;;;;;3.92;1.75;;;24.60;99.90;;;;;;6061644;23;20030;-79
2022/09/14 12:17:19;;;;;;;8.43;3.10;;;24.60;99.90;;;;;;6065659;23;20033;-79
2022/09/14 12:20:34;;;;;;;10.88;2.13;;;24.70;99.90;;;;;;6047877;23;20019;-79
2022/09/14 12:23:19;;;;;;;7.55;1.33;;;24.30;99.90;;;;;;6071115;23;20019;-80
2022/09/14 12:26:05;;;;;;;9.23;2.45;;;24.20;99.90;;;;;;6062518;23;20068;-79
2022/09/14 12:28:36;;;;;;;4.20;1.40;;;24.20;99.90;;;;;;6067372;23;20038;-79
2022/09/14 12:31:03;;;;;;;;;;;24.30;99.90;;;;;;6070563;23;20583;-79
2022/09/14 12:36:30;;;;;;;4.30;1.88;;;24.20;99.90;;;;;;6042832;23;20446;-78
2022/09/14 12:38:58;;;;;;;5.63;1.47;;;24.20;99.90;;;;;;6081874;23;20023;-78
2022/09/14 12:41:26;;;;;;;4.20;1.50;;;24.20;99.90;;;;;;6085484;23;21102;-78
2022/09/14 12:43:54;;;;;;;5.95;1.83;;;24.20;99.90;;;;;;6042707;23;20330;-78
2022/09/14 12:46:22;;;;;;;8.93;1.67;;;24.10;99.90;;;;;;6094760;23;20019;-79
2022/09/14 12:48:51;;;;;;;10.10;1.65;;;24.10;99.90;;;;;;6092126;23;20038;-78
2022/09/14 12:51:33;;;;;;;3.47;1.48;;;24.20;99.90;;;;;;6096234;23;20030;-80
2022/09/14 12:54:08;;;;;;;3.58;1.85;;;24.20;99.90;;;;;;6087547;23;20027;-80
2022/09/14 12:56:36;;;;;;;2.35;1.75;;;24.20;99.90;;;;;;6040359;23;20030;-80
2022/09/14 12:59:29;;;;;;;4.32;2.15;;;24.20;99.90;;;;;;6039457;23;20338;-79
2022/09/14 13:02:31;;;;;;;3.22;1.48;;;24.30;99.90;;;;;;6062441;23;20328;-79
2022/09/14 13:05:01;;;;;;;8.02;2.03;;;24.30;99.90;;;;;;6039532;23;20455;-81
2022/09/14 13:07:32;;;;;;;3.03;1.77;;;24.20;99.90;;;;;;6099398;23;20014;-80
2022/09/14 13:10:00;;;;;;;;;;;24.10;99.90;;;;;;6064903;23;20030;-80
2022/09/14 13:12:37;;;;;;;3.05;2.53;;;24.20;99.90;;;;;;6070395;23;19921;-80
2022/09/14 13:15:15;;;;;;;6.13;1.77;;;24.30;99.90;;;;;;6100332;23;20018;-82
2022/09/14 13:18:03;;;;;;;3.10;2.05;;;24.20;99.90;;;;;;6090463;23;20026;-84
2022/09/14 13:20:33;;;;;;;1.30;1.20;;;24.20;99.90;;;;;;6071105;23;20033;-80
2022/09/14 13:23:01;;;;;;;11.40;3.17;;;24.10;99.90;;;;;;6063574;23;20092;-81
2022/09/14 13:25:36;;;;;;;2.88;1.60;;;24.10;99.90;;;;;;6091009;23;20511;-83
2022/09/14 13:28:14;;;;;;;2.78;2.20;;;24.10;99.90;;;;;;6073138;23;20022;-81
2022/09/14 13:30:42;;;;;;;1.70;1.30;;;24.00;99.90;;;;;;6100776;23;20037;-83
2022/09/14 13:33:16;;;;;;;4.88;2.10;;;23.90;99.90;;;;;;6041105;23;20030;-83
2022/09/14 13:35:59;;;;;;;6.35;1.65;;;23.90;99.90;;;;;;6100112;23;20018;-80
2022/09/14 13:38:38;;;;;;;5.93;1.77;;;23.90;99.90;;;;;;6067530;23;20030;-82
2022/09/14 13:41:10;;;;;;;2.63;1.60;;;23.80;99.90;;;;;;6065750;23;20846;-81
2022/09/14 13:43:40;;;;;;;7.80;2.20;;;23.90;99.90;;;;;;6013292;23;20023;-80
2022/09/14 13:46:10;;;;;;;3.92;2.10;;;23.80;99.90;;;;;;6059961;23;20033;-81
2022/09/14 13:48:39;;;;;;;5.13;1.10;;;23.80;99.90;;;;;;6053192;23;20030;-85
2022/09/14 13:51:09;;;;;;;6.60;1.93;;;23.70;99.90;;;;;;6101241;23;20021;-82
2022/09/14 13:53:47;;;;;;;7.00;2.55;;;23.60;99.90;;;;;;6089167;23;20026;-85
2022/09/14 13:56:29;;;;;;;5.97;1.73;;;23.60;99.90;;;;;;6073073;23;20018;-85
2022/09/14 13:59:17;;;;;;;4.45;2.80;;;23.60;99.90;;;;;;6099209;23;20073;-83
2022/09/14 14:01:56;;;;;;;9.32;2.50;;;23.50;99.90;;;;;;6091412;23;20030;-82
2022/09/14 14:04:36;;;;;;;10.05;2.65;;;23.50;99.90;;;;;;6038458;23;20046;-81
2022/09/14 14:07:13;;;;;;;4.13;2.10;;;23.40;99.90;;;;;;6072772;23;20425;-82